Soaring Guidance
Issued by NWS Reno, NV

Home | Current Version | Previous Version | Text Only | Print | Product List | Glossary On
Versions: 1 2 3 4 5 6 7
000
UXUS97 KREV 291346
SRGREV

SOARING FORECAST
NATIONAL WEATHER SERVICE - RENO NV
700 AM PDT THU SEP 29 2016

THIS SOARING FORECAST IS FOR THE EASTERN SIERRA AND WESTERN NEVADA
WITH SPECIFIC INDICES FOR THE GREATER RENO AREA.

THIS FORECAST IS PREPARED DAILY BY 700 AM AND IS NOT UPDATED.

FOR CURRENT FLIGHT CONDITIONS...FORECASTS...AND ADVISORIES...ACCESS
YOUR LOCAL BRIEFING OUTLET OR FLIGHT SERVICE STATION.

*******************************************************************
FORECASTED LOCAL INDICES FOR RENO:        TODAY     YESTERDAY
FORECASTED MAX TEMP AT RENO (DEG F).....     84          91
FORECASTED TRIGGER TEMPERATURE (DEG F)..     75          80
   EXCEEDED YESTERDAY BY 1255 PM PDT
FORECASTED MAXIMUM ALTITUDE (FT MSL)....  17900       17100
FORECASTED SOARING INDEX (FPM)..........   1257        1173
FORECASTED K-INDEX.........VALID 18Z....     13          11
FORECASTED K-INDEX.........VALID 00Z....     22          15
FORECASTED LIFTED INDEX....VALID 18Z....      4           6
FORECASTED LIFTED INDEX....VALID 00Z....      2           4

AFTERNOON WINDS ALOFT FORECAST
MSL (FT) WIND/TEMP
9000  2415/+12
10000 2215/+09
12000 2114/+04
14000 2115/-01
16000 2117/-07
18000 2222/-13
24000 2229/-24
30000 2234/-38
34000 2337/-47
39000 2344/-56

SLIDE MOUNTAIN DATA:
     DATE       TIME     TEMP  DEWPT   RH         WIND (MPH)
                        (F)   (F)           | DIR  SPEED GUST
2016-09-29    04:00      47    32     45    | 256   18   29
2016-09-29    03:50      47    32     46    | 252   18   29
2016-09-29    03:30      47    32     46    | 251   19   29
2016-09-29    03:20      47    33     46    | 254   19   27

RENO TAF FORECAST:
KRNO 291120Z 2912/3012 VRB03KT P6SM SCT150
     FM292100 24013G23KT P6SM SCT090
     FM300400 VRB04KT P6SM SCT120

CARSON CITY TAF FORECAST:
KCXP 291120Z 2912/3012 VRB03KT P6SM SCT150
     FM292100 25012G22KT P6SM SCT090
     FM300300 VRB03KT P6SM SCT120

OUTLOOK FOR THE RENO-CARSON CITY-MINDEN AREA:
.FRIDAY...SUNNY. HIGHS 75 TO 80. SOUTHWEST WINDS AROUND 10 MPH
INCREASING TO 15 TO 25 MPH WITH GUSTS UP TO 45 MPH IN THE
AFTERNOON.

SUNRISE AND SUNSET
SEPTEMBER 29 2016.....SUNRISE   654 AM PDT   SUNSET   644 PM PDT
SEPTEMBER 30 2016.....SUNRISE   655 AM PDT   SUNSET   642 PM PDT



USA.gov is the U.S. government's official web portal to all federal, state and local government web resources and services.